createdAt,value
2023-01-25T00:01:52.621Z,33.00
2023-01-25T00:06:55.728Z,35.20
2023-01-25T00:11:58.310Z,37.70
2023-01-25T00:17:00.966Z,35.37
2023-01-25T00:22:03.458Z,37.30
2023-01-25T00:27:06.067Z,37.03
2023-01-25T00:32:32.549Z,36.27
2023-01-25T00:37:47.605Z,41.67
2023-01-25T00:42:50.137Z,26.83
2023-01-25T00:47:56.015Z,32.60
2023-01-25T00:52:58.514Z,33.87
2023-01-25T00:58:00.966Z,33.60
2023-01-25T01:03:03.627Z,32.73
2023-01-25T01:08:06.148Z,28.00
2023-01-25T01:13:08.654Z,30.17
2023-01-25T01:18:11.160Z,28.23
2023-01-25T01:23:13.649Z,30.20
2023-01-25T01:28:16.163Z,29.43
2023-01-25T01:33:18.670Z,27.10
2023-01-25T01:38:21.504Z,29.80
2023-01-25T01:43:24.938Z,26.80
2023-01-25T01:48:49.373Z,26.07
2023-01-25T01:54:02.737Z,28.67
2023-01-25T01:59:08.148Z,27.30
2023-01-25T02:04:12.066Z,29.40
2023-01-25T02:09:18.507Z,31.03
2023-01-25T02:14:21.538Z,28.27
2023-01-25T02:19:51.401Z,31.13
2023-01-25T02:25:11.531Z,27.60
2023-01-25T02:30:14.285Z,21.30
2023-01-25T02:35:24.839Z,24.23
2023-01-25T02:40:28.954Z,25.23
2023-01-25T02:45:31.865Z,28.43
2023-01-25T02:50:34.321Z,27.73
2023-01-25T02:55:37.075Z,23.30
2023-01-25T03:00:39.776Z,26.87
2023-01-25T03:05:42.331Z,25.83
2023-01-25T03:10:45.037Z,26.07
2023-01-25T03:15:47.624Z,26.73
2023-01-25T03:20:50.593Z,25.60
2023-01-25T03:25:53.503Z,27.50
2023-01-25T03:30:56.137Z,26.47
2023-01-25T03:35:59.348Z,25.97
2023-01-25T03:41:04.211Z,24.87
2023-01-25T03:46:08.513Z,23.47
2023-01-25T03:51:11.175Z,28.33
2023-01-25T03:56:20.020Z,22.13
2023-01-25T04:01:39.656Z,24.10
2023-01-25T04:06:42.236Z,22.00
2023-01-25T04:11:44.878Z,20.20
2023-01-25T04:16:48.849Z,22.77
2023-01-25T04:22:23.252Z,24.00
2023-01-25T04:27:29.000Z,21.70
2023-01-25T04:32:39.314Z,19.60
2023-01-25T04:37:58.505Z,24.13
2023-01-25T04:43:06.895Z,21.17
2023-01-25T04:48:12.523Z,21.80
2023-01-25T04:53:23.207Z,20.87
2023-01-25T04:58:26.941Z,22.67
2023-01-25T05:03:30.860Z,18.70
2023-01-25T05:08:33.950Z,17.87
2023-01-25T05:13:38.872Z,17.80
2023-01-25T05:19:01.480Z,18.03
2023-01-25T05:24:13.284Z,21.57
2023-01-25T05:29:16.157Z,22.20
2023-01-25T05:34:41.418Z,23.17
2023-01-25T05:39:44.721Z,9.37
2023-01-25T05:44:48.028Z,21.63
2023-01-25T05:49:51.754Z,21.23
2023-01-25T05:55:02.844Z,21.23
2023-01-25T06:00:06.868Z,18.23
2023-01-25T06:05:15.661Z,17.20
2023-01-25T06:10:19.225Z,18.33
2023-01-25T06:15:25.524Z,17.23
2023-01-25T06:20:30.418Z,17.30
2023-01-25T06:25:41.772Z,15.30
2023-01-25T06:30:44.343Z,14.57
2023-01-25T06:35:47.051Z,13.23
2023-01-25T06:40:49.596Z,12.87
2023-01-25T06:45:52.096Z,9.53
2023-01-25T06:50:56.685Z,9.00
2023-01-25T06:56:06.574Z,11.03
2023-01-25T07:01:16.761Z,10.60
2023-01-25T07:06:19.761Z,11.13
2023-01-25T07:11:22.324Z,10.97
2023-01-25T07:16:24.802Z,9.37
2023-01-25T07:21:27.572Z,8.77
2023-01-25T07:26:30.974Z,8.40
2023-01-25T07:31:33.736Z,7.00
2023-01-25T07:36:36.898Z,7.73
2023-01-25T07:41:40.328Z,8.07
2023-01-25T07:46:47.734Z,6.73
2023-01-25T07:51:50.278Z,6.73
2023-01-25T07:56:52.799Z,7.30
2023-01-25T08:01:55.406Z,8.40
2023-01-25T08:06:57.959Z,8.10
2023-01-25T08:12:00.594Z,7.97
2023-01-25T08:17:03.042Z,7.67
2023-01-25T08:22:08.694Z,7.63
2023-01-25T08:27:11.411Z,8.37
2023-01-25T08:32:13.961Z,10.13
2023-01-25T08:37:16.845Z,8.63
2023-01-25T08:42:20.560Z,8.10
2023-01-25T08:47:23.437Z,8.17
2023-01-25T08:52:25.973Z,7.17
2023-01-25T08:57:28.664Z,7.50
2023-01-25T09:02:31.117Z,8.17
2023-01-25T09:07:37.872Z,9.30
2023-01-25T09:12:40.428Z,9.10
2023-01-25T09:17:43.049Z,8.40
2023-01-25T09:22:45.672Z,9.57
2023-01-25T09:27:51.467Z,10.90
2023-01-25T09:32:54.202Z,7.53
2023-01-25T09:37:57.077Z,7.13
2023-01-25T09:43:21.075Z,8.17
2023-01-25T09:48:31.169Z,7.87
2023-01-25T09:53:51.820Z,7.97
2023-01-25T09:58:59.582Z,7.50
2023-01-25T10:04:09.868Z,9.70
2023-01-25T10:09:22.345Z,9.63
2023-01-25T10:14:25.299Z,10.07
2023-01-25T10:19:55.404Z,10.93
2023-01-25T10:25:15.436Z,10.93
2023-01-25T10:30:21.889Z,10.73
2023-01-25T10:35:36.762Z,12.50
2023-01-25T10:41:20.157Z,11.77
2023-01-25T10:46:25.657Z,10.20
2023-01-25T10:51:33.790Z,11.40
2023-01-25T10:56:39.639Z,11.73
2023-01-25T11:01:42.992Z,12.77
2023-01-25T11:06:51.512Z,10.50
2023-01-25T11:12:18.924Z,12.47
2023-01-25T11:17:23.955Z,12.70
2023-01-25T11:22:28.752Z,12.30
2023-01-25T11:27:31.429Z,11.10
2023-01-25T11:32:34.349Z,10.03
2023-01-25T11:37:41.835Z,13.37
2023-01-25T11:43:09.845Z,9.57
2023-01-25T11:48:20.884Z,7.97
2023-01-25T11:54:14.415Z,9.43
2023-01-25T11:59:44.281Z,11.97
2023-01-25T12:05:12.627Z,10.83
2023-01-25T12:10:27.355Z,12.33
2023-01-25T12:15:55.294Z,15.50
2023-01-25T12:20:57.780Z,13.77
2023-01-25T12:26:18.708Z,9.13
2023-01-25T12:31:32.556Z,8.83
2023-01-25T12:36:43.956Z,8.67
2023-01-25T12:41:48.718Z,10.83
2023-01-25T12:47:00.935Z,9.47
2023-01-25T12:52:07.803Z,11.23
2023-01-25T12:57:26.044Z,13.20
2023-01-25T13:02:50.980Z,14.87
2023-01-25T13:08:00.846Z,12.73
2023-01-25T13:13:20.882Z,12.73
2023-01-25T13:18:29.641Z,12.00
2023-01-25T13:23:58.086Z,12.47
2023-01-25T13:29:01.174Z,12.00
2023-01-25T13:34:05.953Z,14.83
2023-01-25T13:39:23.556Z,12.60
2023-01-25T13:44:29.494Z,11.50
2023-01-25T13:49:40.977Z,11.13
2023-01-25T13:54:45.347Z,11.30
2023-01-25T13:59:49.526Z,11.70
2023-01-25T14:04:53.952Z,12.00
2023-01-25T14:09:57.139Z,13.70
2023-01-25T14:15:24.695Z,11.27
2023-01-25T14:20:27.293Z,12.03
2023-01-25T14:25:29.866Z,14.20
2023-01-25T14:30:34.795Z,19.30
2023-01-25T14:35:42.842Z,9.87
2023-01-25T14:40:59.192Z,16.37
2023-01-25T14:46:01.725Z,15.07
2023-01-25T14:51:17.170Z,16.87
2023-01-25T14:56:39.973Z,14.77
2023-01-25T15:01:42.457Z,17.17
2023-01-25T15:06:50.266Z,13.53
2023-01-25T15:12:00.416Z,15.90
2023-01-25T15:17:02.950Z,15.93
2023-01-25T15:22:08.607Z,16.20
2023-01-25T15:27:12.027Z,19.90
2023-01-25T15:32:21.640Z,22.50
2023-01-25T15:37:24.102Z,23.37
2023-01-25T15:42:29.003Z,25.00
2023-01-25T15:47:32.041Z,18.40
2023-01-25T15:52:34.569Z,17.67
2023-01-25T15:57:37.278Z,19.37
2023-01-25T16:02:39.933Z,16.60
2023-01-25T16:07:43.772Z,18.10
2023-01-25T16:12:46.474Z,18.60
2023-01-25T16:17:48.893Z,17.23
2023-01-25T16:22:51.454Z,20.70
2023-01-25T16:27:54.028Z,19.77
2023-01-25T16:32:56.653Z,20.93
2023-01-25T16:37:59.263Z,18.73
2023-01-25T16:43:02.090Z,19.30
2023-01-25T16:48:04.855Z,16.67
2023-01-25T16:53:07.390Z,19.40
2023-01-25T16:58:09.965Z,17.03
2023-01-25T17:03:12.477Z,18.60
2023-01-25T17:08:15.016Z,20.83
2023-01-25T17:13:17.632Z,25.13
2023-01-25T17:18:20.236Z,29.90
2023-01-25T17:23:22.812Z,21.53
2023-01-25T17:28:25.611Z,21.80
2023-01-25T17:33:29.002Z,26.77
2023-01-25T17:38:31.545Z,24.30
2023-01-25T17:43:34.759Z,20.30
2023-01-25T17:48:37.275Z,23.27
2023-01-25T17:53:39.803Z,21.20
2023-01-25T17:58:42.629Z,24.00
2023-01-25T18:03:47.327Z,22.77
2023-01-25T18:08:51.699Z,22.87
2023-01-25T18:13:57.141Z,20.33
2023-01-25T18:19:00.871Z,21.10
2023-01-25T18:24:27.414Z,23.33
2023-01-25T18:29:48.715Z,22.67
2023-01-25T18:34:51.861Z,26.77
2023-01-25T18:39:55.792Z,18.90
2023-01-25T18:44:58.679Z,26.43
2023-01-25T18:50:02.068Z,25.90
2023-01-25T18:55:04.876Z,27.43
2023-01-25T19:00:11.041Z,26.87
2023-01-25T19:05:14.507Z,25.23
2023-01-25T19:10:18.585Z,41.33
2023-01-25T19:15:21.577Z,37.40
2023-01-25T19:20:26.520Z,22.23
2023-01-25T19:25:30.765Z,36.23
2023-01-25T19:30:33.659Z,36.37
2023-01-25T19:35:36.662Z,37.30
2023-01-25T19:40:39.918Z,36.40
2023-01-25T19:45:43.091Z,37.30
2023-01-25T19:50:46.176Z,39.97
2023-01-25T19:55:49.122Z,41.57
2023-01-25T20:00:52.080Z,38.37
2023-01-25T20:05:59.707Z,46.80
2023-01-25T20:11:08.549Z,49.07
2023-01-25T20:16:12.807Z,48.37
2023-01-25T20:21:22.473Z,46.53
2023-01-25T20:26:32.643Z,49.63
2023-01-25T20:31:38.890Z,44.53
2023-01-25T20:36:42.805Z,47.80
2023-01-25T20:41:47.170Z,38.70
2023-01-25T20:46:52.273Z,45.37
2023-01-25T20:51:55.506Z,45.10
2023-01-25T20:56:58.613Z,42.97
2023-01-25T21:02:01.801Z,43.77
2023-01-25T21:07:04.707Z,41.40
2023-01-25T21:12:08.168Z,42.00
2023-01-25T21:17:11.556Z,42.67
2023-01-25T21:22:14.270Z,46.97
2023-01-25T21:27:17.251Z,49.33
2023-01-25T21:32:19.924Z,48.80
2023-01-25T21:37:22.623Z,49.83
2023-01-25T21:42:25.233Z,49.80
2023-01-25T21:47:31.390Z,44.83
2023-01-25T21:52:37.314Z,43.80
2023-01-25T21:57:47.249Z,41.27
2023-01-25T22:02:51.989Z,37.80
2023-01-25T22:07:54.995Z,51.27
2023-01-25T22:12:57.527Z,45.00
2023-01-25T22:17:59.960Z,39.70
2023-01-25T22:23:02.945Z,39.80
2023-01-25T22:28:12.201Z,38.73
2023-01-25T22:33:14.695Z,38.13
2023-01-25T22:38:17.596Z,43.37
2023-01-25T22:43:19.991Z,38.50
2023-01-25T22:48:22.901Z,39.50
2023-01-25T22:53:25.274Z,38.97
2023-01-25T22:58:28.343Z,36.63
2023-01-25T23:03:31.154Z,38.80
2023-01-25T23:08:35.691Z,39.33
2023-01-25T23:13:39.932Z,39.37
2023-01-25T23:18:51.676Z,40.90
2023-01-25T23:23:55.170Z,40.37
2023-01-25T23:28:58.125Z,39.33
2023-01-25T23:34:03.035Z,43.57
2023-01-25T23:39:05.866Z,42.57
2023-01-25T23:44:09.870Z,36.17
2023-01-25T23:54:43.675Z,37.20
2023-01-25T23:59:46.235Z,35.07
